createdAt,value
2023-02-22T00:01:23.052Z,64.39
2023-02-22T00:11:27.436Z,64.52
2023-02-22T00:21:31.104Z,64.45
2023-02-22T00:31:37.991Z,64.58
2023-02-22T00:41:40.573Z,64.51
2023-02-22T00:51:44.388Z,65.25
2023-02-22T01:01:46.822Z,65.19
2023-02-22T01:11:55.165Z,66.43
2023-02-22T01:21:57.943Z,65.96
2023-02-22T01:32:01.981Z,66.38
2023-02-22T01:42:04.525Z,66.57
2023-02-22T01:52:09.756Z,66.65
2023-02-22T02:02:12.409Z,66.62
2023-02-22T02:12:16.979Z,66.16
2023-02-22T02:22:29.701Z,65.85
2023-02-22T02:32:36.616Z,65.63
2023-02-22T02:42:43.173Z,65.39
2023-02-22T02:52:47.727Z,66.12
2023-02-22T03:02:58.684Z,65.87
2023-02-22T03:13:09.309Z,66.08
2023-02-22T03:23:15.424Z,66.57
2023-02-22T03:33:20.929Z,66.27
2023-02-22T03:43:25.980Z,66.17
2023-02-22T03:53:30.470Z,66.27
2023-02-22T04:03:33.098Z,66.95
2023-02-22T04:13:36.858Z,67.15
2023-02-22T04:23:39.449Z,67.20
2023-02-22T04:33:43.341Z,67.24
2023-02-22T04:43:46.055Z,67.39
2023-02-22T04:53:49.839Z,66.64
2023-02-22T05:03:52.437Z,65.71
2023-02-22T05:13:56.476Z,65.42
2023-02-22T05:23:59.088Z,64.85
2023-02-22T05:34:03.203Z,64.23
2023-02-22T05:44:05.785Z,64.51
2023-02-22T05:54:09.619Z,64.69
2023-02-22T06:04:12.013Z,64.37
2023-02-22T06:14:15.762Z,64.88
2023-02-22T06:24:18.140Z,64.95
2023-02-22T06:34:22.846Z,64.67
2023-02-22T06:44:25.317Z,64.50
2023-02-22T06:54:29.078Z,64.18
2023-02-22T07:04:31.635Z,64.18
2023-02-22T07:14:35.457Z,63.83
2023-02-22T07:24:37.871Z,61.96
2023-02-22T07:34:42.091Z,61.99
2023-02-22T07:44:44.830Z,62.49
2023-02-22T07:54:48.665Z,62.38
2023-02-22T08:04:51.064Z,62.41
2023-02-22T08:14:54.793Z,61.97
2023-02-22T08:24:57.222Z,61.45
2023-02-22T08:35:01.294Z,60.61
2023-02-22T08:45:03.770Z,61.02
2023-02-22T08:55:07.975Z,60.81
2023-02-22T09:05:10.583Z,60.19
2023-02-22T09:15:14.402Z,59.37
2023-02-22T09:25:17.796Z,59.05
2023-02-22T09:35:26.950Z,58.96
2023-02-22T09:45:34.965Z,57.54
2023-02-22T09:55:41.162Z,56.37
2023-02-22T10:05:44.838Z,55.66
2023-02-22T10:15:52.442Z,54.69
2023-02-22T10:25:58.096Z,54.11
2023-02-22T10:36:03.267Z,54.30
2023-02-22T10:46:08.136Z,54.17
2023-02-22T10:56:15.812Z,53.60
2023-02-22T11:06:20.334Z,53.17
2023-02-22T11:16:28.100Z,51.39
2023-02-22T11:26:37.621Z,50.43
2023-02-22T11:36:42.051Z,48.85
2023-02-22T11:46:44.739Z,49.35
2023-02-22T11:56:50.054Z,50.12
2023-02-22T12:06:56.946Z,49.49
2023-02-22T12:17:08.403Z,48.59
2023-02-22T12:27:14.614Z,45.23
2023-02-22T12:37:21.176Z,44.42
2023-02-22T12:47:27.499Z,42.92
2023-02-22T12:57:42.560Z,42.31
2023-02-22T13:07:49.503Z,39.39
2023-02-22T13:18:01.301Z,39.02
2023-02-22T13:28:09.401Z,37.98
2023-02-22T13:38:33.779Z,39.85
2023-02-22T13:48:42.327Z,41.03
2023-02-22T13:58:50.801Z,43.40
2023-02-22T14:08:53.323Z,44.45
2023-02-22T14:19:06.351Z,45.01
2023-02-22T14:29:20.406Z,46.60
2023-02-22T14:39:31.708Z,46.91
2023-02-22T14:49:37.647Z,48.06
2023-02-22T14:59:48.405Z,48.51
2023-02-22T15:09:51.007Z,48.13
2023-02-22T15:19:55.263Z,49.48
2023-02-22T15:29:59.290Z,50.87
2023-02-22T15:40:14.375Z,52.04
2023-02-22T15:50:23.570Z,52.60
2023-02-22T16:00:33.828Z,53.40
2023-02-22T16:10:36.977Z,54.61
2023-02-22T16:20:40.874Z,54.25
2023-02-22T16:30:43.376Z,54.52
2023-02-22T16:40:50.401Z,54.94
2023-02-22T16:50:53.721Z,55.41
2023-02-22T17:00:58.262Z,55.34
2023-02-22T17:11:00.839Z,55.53
2023-02-22T17:21:04.868Z,56.33
2023-02-22T17:31:07.538Z,56.75
2023-02-22T17:41:11.368Z,57.51
2023-02-22T17:51:13.948Z,57.58
2023-02-22T18:01:21.780Z,60.21
2023-02-22T18:11:26.214Z,59.04
2023-02-22T18:21:30.199Z,61.01
2023-02-22T18:31:32.821Z,61.55
2023-02-22T18:41:37.139Z,62.58
2023-02-22T18:51:39.949Z,63.22
2023-02-22T19:01:48.850Z,63.05
2023-02-22T19:11:54.539Z,63.34
2023-02-22T19:21:59.891Z,63.58
2023-02-22T19:32:02.870Z,63.60
2023-02-22T19:42:09.509Z,64.01
2023-02-22T19:52:11.916Z,64.31
2023-02-22T20:02:15.850Z,64.39
2023-02-22T20:12:18.978Z,64.99
2023-02-22T20:22:23.036Z,65.37
2023-02-22T20:32:28.427Z,65.40
2023-02-22T20:42:40.552Z,66.14
2023-02-22T20:52:43.051Z,66.65
2023-02-22T21:02:49.952Z,66.82
2023-02-22T21:12:52.437Z,67.20
2023-02-22T21:22:56.400Z,67.92
2023-02-22T21:32:58.946Z,68.09
2023-02-22T21:43:05.624Z,68.39
2023-02-22T21:53:08.564Z,69.00
2023-02-22T22:03:20.328Z,69.63
2023-02-22T22:13:25.411Z,69.43
2023-02-22T22:23:30.394Z,69.54
2023-02-22T22:33:34.873Z,70.14
2023-02-22T22:43:38.756Z,70.50
2023-02-22T22:53:42.500Z,70.95
2023-02-22T23:03:55.318Z,71.48
2023-02-22T23:13:58.364Z,71.59
2023-02-22T23:24:02.680Z,72.13
2023-02-22T23:34:10.880Z,71.70
2023-02-22T23:44:17.452Z,72.58
2023-02-22T23:54:20.943Z,72.79
